createdAt,value
2018-03-25T00:00:16.095Z,70.40
2018-03-25T00:02:44.160Z,70.40
2018-03-25T00:05:12.218Z,70.40
2018-03-25T00:07:40.431Z,70.40
2018-03-25T00:10:08.498Z,70.90
2018-03-25T00:12:36.545Z,70.70
2018-03-25T00:15:05.393Z,70.90
2018-03-25T00:17:33.480Z,70.80
2018-03-25T00:20:01.555Z,70.80
2018-03-25T00:22:29.649Z,70.50
2018-03-25T00:24:57.739Z,70.80
2018-03-25T00:27:25.845Z,71.30
2018-03-25T00:29:56.331Z,71.60
2018-03-25T00:32:24.979Z,71.10
2018-03-25T00:34:53.837Z,72.30
2018-03-25T00:37:21.911Z,72.20
2018-03-25T00:39:50.095Z,72.10
2018-03-25T00:42:18.210Z,72.60
2018-03-25T00:44:47.000Z,74.40
2018-03-25T00:47:15.232Z,73.60
2018-03-25T00:49:43.292Z,73.50
2018-03-25T00:52:11.364Z,73.50
2018-03-25T00:54:40.248Z,74.30
2018-03-25T00:57:09.092Z,74.90
2018-03-25T00:59:37.117Z,74.80
2018-03-25T01:02:05.184Z,75.30
2018-03-25T01:04:34.112Z,75.50
2018-03-25T01:07:02.174Z,75.40
2018-03-25T01:09:31.045Z,76.00
2018-03-25T01:11:59.110Z,75.90
2018-03-25T01:14:27.238Z,76.10
2018-03-25T01:16:55.297Z,76.00
2018-03-25T01:19:23.470Z,75.40
2018-03-25T01:21:51.537Z,75.50
2018-03-25T01:24:19.608Z,76.00
2018-03-25T01:26:49.482Z,76.50
2018-03-25T01:29:17.728Z,76.40
2018-03-25T01:31:45.810Z,76.90
2018-03-25T01:34:13.949Z,76.90
2018-03-25T01:36:42.002Z,77.50
2018-03-25T01:39:10.092Z,78.60
2018-03-25T01:41:38.153Z,77.50
2018-03-25T01:44:06.237Z,77.20
2018-03-25T01:46:34.309Z,77.60
2018-03-25T01:49:02.395Z,77.10
2018-03-25T01:51:30.584Z,77.00
2018-03-25T01:53:58.644Z,77.70
2018-03-25T01:56:26.733Z,78.50
2018-03-25T01:58:54.796Z,78.80
2018-03-25T02:01:23.628Z,78.90
2018-03-25T02:03:51.744Z,78.90
2018-03-25T02:06:19.832Z,78.20
2018-03-25T02:08:48.064Z,78.80
2018-03-25T02:11:16.975Z,78.80
2018-03-25T02:13:45.036Z,78.80
2018-03-25T02:16:13.094Z,78.80
2018-03-25T02:18:41.253Z,78.60
2018-03-25T02:21:09.309Z,78.50
2018-03-25T02:23:37.475Z,78.70
2018-03-25T02:26:05.531Z,78.40
2018-03-25T02:28:33.613Z,78.70
2018-03-25T02:31:01.724Z,78.60
2018-03-25T02:33:29.823Z,78.70
2018-03-25T02:35:58.644Z,79.00
2018-03-25T02:38:26.899Z,78.90
2018-03-25T02:40:55.726Z,79.30
2018-03-25T02:43:23.815Z,79.20
2018-03-25T02:45:51.865Z,79.60
2018-03-25T02:48:19.931Z,79.90
2018-03-25T02:50:47.990Z,80.30
2018-03-25T02:53:16.168Z,79.60
2018-03-25T02:55:44.283Z,79.10
2018-03-25T02:58:12.345Z,79.50
2018-03-25T03:00:40.397Z,79.50
2018-03-25T03:03:08.470Z,79.20
2018-03-25T03:05:36.543Z,79.20
2018-03-25T03:08:05.368Z,80.20
2018-03-25T03:10:33.437Z,80.20
2018-03-25T03:13:01.502Z,80.40
2018-03-25T03:15:30.428Z,80.70
2018-03-25T03:17:58.648Z,80.80
2018-03-25T03:20:26.711Z,80.80
2018-03-25T03:22:54.787Z,81.10
2018-03-25T03:25:22.863Z,81.50
2018-03-25T03:27:51.897Z,82.10
2018-03-25T03:30:19.968Z,82.10
2018-03-25T03:32:48.813Z,82.80
2018-03-25T03:35:16.894Z,82.80
2018-03-25T03:37:44.960Z,81.00
2018-03-25T03:40:13.045Z,81.10
2018-03-25T03:42:41.126Z,80.70
2018-03-25T03:45:09.833Z,81.40
2018-03-25T03:47:37.901Z,80.80
2018-03-25T03:50:05.982Z,81.10
2018-03-25T03:52:34.098Z,81.20
2018-03-25T03:55:02.138Z,81.50
2018-03-25T03:57:30.275Z,81.60
2018-03-25T03:59:58.345Z,81.70
2018-03-25T04:02:26.424Z,80.90
2018-03-25T04:04:54.890Z,81.00
2018-03-25T04:07:22.952Z,81.30
2018-03-25T04:09:51.164Z,81.70
2018-03-25T04:12:19.242Z,81.30
2018-03-25T04:14:47.345Z,80.80
2018-03-25T04:17:15.404Z,81.00
2018-03-25T04:19:43.496Z,81.10
2018-03-25T04:22:11.635Z,81.80
2018-03-25T04:24:40.487Z,83.40
2018-03-25T04:27:08.638Z,82.60
2018-03-25T04:29:37.459Z,82.10
2018-03-25T04:32:05.627Z,82.00
2018-03-25T04:34:33.741Z,82.00
2018-03-25T04:37:01.805Z,81.40
2018-03-25T04:39:29.886Z,81.20
2018-03-25T04:41:57.948Z,81.20
2018-03-25T04:44:26.788Z,81.70
2018-03-25T04:46:54.900Z,81.70
2018-03-25T04:49:23.770Z,81.60
2018-03-25T04:51:51.978Z,81.90
2018-03-25T04:54:20.059Z,81.80
2018-03-25T04:56:48.133Z,81.50
2018-03-25T04:59:16.191Z,81.70
2018-03-25T05:01:44.265Z,81.70
2018-03-25T05:04:13.095Z,81.70
2018-03-25T05:06:41.173Z,81.70
2018-03-25T05:09:09.255Z,81.60
2018-03-25T05:11:37.324Z,81.50
2018-03-25T05:14:05.406Z,81.60
2018-03-25T05:16:33.472Z,81.80
2018-03-25T05:19:02.305Z,84.40
2018-03-25T05:21:30.383Z,84.30
2018-03-25T05:23:58.442Z,85.20
2018-03-25T05:26:27.285Z,85.10
2018-03-25T05:28:55.347Z,85.00
2018-03-25T05:31:23.429Z,85.40
2018-03-25T05:33:51.510Z,85.80
2018-03-25T05:36:19.580Z,86.50
2018-03-25T05:38:48.423Z,86.40
2018-03-25T05:41:16.506Z,86.30
2018-03-25T05:43:44.578Z,86.00
2018-03-25T05:46:12.654Z,85.30
2018-03-25T05:48:40.723Z,85.00
2018-03-25T05:51:09.560Z,84.60
2018-03-25T05:53:38.613Z,84.50
2018-03-25T05:56:06.678Z,84.80
2018-03-25T05:58:34.740Z,84.90
2018-03-25T06:01:02.837Z,84.80
2018-03-25T06:03:30.884Z,84.20
2018-03-25T06:05:58.955Z,83.70
2018-03-25T06:08:27.020Z,83.70
2018-03-25T06:10:55.881Z,84.10
2018-03-25T06:13:23.938Z,84.00
2018-03-25T06:15:52.076Z,83.80
2018-03-25T06:18:20.064Z,84.40
2018-03-25T06:20:48.900Z,82.70
2018-03-25T06:23:16.970Z,83.20
2018-03-25T06:25:45.814Z,83.00
2018-03-25T06:28:13.881Z,82.90
2018-03-25T06:30:41.967Z,83.10
2018-03-25T06:33:10.752Z,82.70
2018-03-25T06:35:38.829Z,82.70
2018-03-25T06:38:06.900Z,82.80
2018-03-25T06:40:35.747Z,83.40
2018-03-25T06:43:03.822Z,83.30
2018-03-25T06:45:32.160Z,83.20
2018-03-25T06:48:00.988Z,84.00
2018-03-25T06:50:29.070Z,84.00
2018-03-25T06:52:57.125Z,83.70
2018-03-25T06:55:25.219Z,83.30
2018-03-25T06:57:54.054Z,83.60
2018-03-25T07:00:22.093Z,83.50
2018-03-25T07:02:50.171Z,83.30
2018-03-25T07:05:18.229Z,83.60
2018-03-25T07:07:46.304Z,83.60
2018-03-25T07:10:14.353Z,83.70
2018-03-25T07:12:42.419Z,83.10
2018-03-25T07:15:11.263Z,82.20
2018-03-25T07:17:39.330Z,82.10
2018-03-25T07:20:07.395Z,81.60
2018-03-25T07:22:36.940Z,80.40
2018-03-25T07:25:05.049Z,80.40
2018-03-25T07:27:33.129Z,81.10
2018-03-25T07:30:01.307Z,80.80
2018-03-25T07:32:29.392Z,80.80
2018-03-25T07:34:57.440Z,80.00
2018-03-25T07:37:25.504Z,80.40
2018-03-25T07:39:54.332Z,79.60
2018-03-25T07:42:22.384Z,79.50
2018-03-25T07:44:50.450Z,79.40
2018-03-25T07:47:18.512Z,79.10
2018-03-25T07:49:46.591Z,78.90
2018-03-25T07:52:15.068Z,79.10
2018-03-25T07:54:43.124Z,78.50
2018-03-25T07:57:11.955Z,77.10
2018-03-25T07:59:40.008Z,77.00
2018-03-25T08:02:08.855Z,75.30
2018-03-25T08:04:36.929Z,75.30
2018-03-25T08:07:05.010Z,75.40
2018-03-25T08:09:33.416Z,74.90
2018-03-25T08:12:01.495Z,73.60
2018-03-25T08:14:29.545Z,73.80
2018-03-25T08:16:57.626Z,73.70
2018-03-25T08:19:26.457Z,72.80
2018-03-25T08:21:54.541Z,72.80
2018-03-25T08:24:22.619Z,73.50
2018-03-25T08:26:50.700Z,73.00
2018-03-25T08:29:20.751Z,72.50
2018-03-25T08:31:49.317Z,72.60
2018-03-25T08:34:17.379Z,72.00
2018-03-25T08:36:46.217Z,71.10
2018-03-25T08:39:14.282Z,71.10
2018-03-25T08:41:42.371Z,69.90
2018-03-25T08:44:10.419Z,69.50
2018-03-25T08:46:38.556Z,68.50
2018-03-25T08:49:06.548Z,68.90
2018-03-25T08:51:34.633Z,68.40
2018-03-25T08:54:02.697Z,67.70
2018-03-25T08:56:30.764Z,67.00
2018-03-25T08:58:58.852Z,66.70
2018-03-25T09:01:26.928Z,66.40
2018-03-25T09:03:55.081Z,66.70
2018-03-25T09:06:23.118Z,65.00
2018-03-25T09:08:51.296Z,64.10
2018-03-25T09:11:19.399Z,63.50
2018-03-25T09:13:47.439Z,63.30
2018-03-25T09:16:16.278Z,58.20
2018-03-25T09:18:44.350Z,58.50
2018-03-25T09:21:12.396Z,57.20
2018-03-25T09:23:41.240Z,59.00
2018-03-25T09:26:09.300Z,58.90
2018-03-25T09:28:37.372Z,57.70
2018-03-25T09:31:06.210Z,56.40
2018-03-25T09:33:34.282Z,56.30
2018-03-25T09:36:02.354Z,54.50
2018-03-25T09:38:30.417Z,53.50
2018-03-25T09:41:00.262Z,44.50
2018-03-25T09:43:28.396Z,44.40
2018-03-25T09:45:56.453Z,37.50
2018-03-25T09:48:24.533Z,30.00
2018-03-25T09:50:52.600Z,28.20
2018-03-25T09:53:20.700Z,24.40
2018-03-25T09:55:48.848Z,23.70
2018-03-25T09:58:17.686Z,21.90
2018-03-25T10:03:50.644Z,23.10
2018-03-25T10:06:18.668Z,23.30
2018-03-25T10:08:47.522Z,24.80
2018-03-25T10:11:15.588Z,24.70
2018-03-25T10:13:43.670Z,25.40
2018-03-25T10:16:11.737Z,27.10
2018-03-25T10:18:39.845Z,27.30
2018-03-25T10:21:07.864Z,27.30
2018-03-25T10:23:35.952Z,27.80
2018-03-25T10:26:04.194Z,28.30
2018-03-25T10:28:32.267Z,28.10
2018-03-25T10:31:00.332Z,26.40
2018-03-25T10:33:28.541Z,26.00
2018-03-25T10:35:56.612Z,24.60
2018-03-25T10:38:24.692Z,23.90
2018-03-25T10:40:52.770Z,22.90
2018-03-25T10:43:21.625Z,23.50
2018-03-25T10:45:49.680Z,23.50
2018-03-25T10:48:17.766Z,23.50
2018-03-25T10:50:45.844Z,23.00
2018-03-25T10:53:13.929Z,23.80
2018-03-25T10:55:41.962Z,24.30
2018-03-25T10:58:10.038Z,23.70
2018-03-25T11:00:38.100Z,21.90
2018-03-25T11:03:06.181Z,21.60
2018-03-25T11:05:34.259Z,21.20
2018-03-25T11:08:02.337Z,21.40
2018-03-25T11:10:30.407Z,21.10
2018-03-25T11:12:58.486Z,21.40
2018-03-25T11:15:26.544Z,21.50
2018-03-25T11:17:55.385Z,21.20
2018-03-25T11:20:23.445Z,21.20
2018-03-25T11:22:51.499Z,21.20
2018-03-25T11:25:19.566Z,22.70
2018-03-25T11:27:47.625Z,21.40
2018-03-25T11:30:15.706Z,21.10
2018-03-25T11:32:43.765Z,22.20
2018-03-25T11:35:11.853Z,22.10
2018-03-25T11:37:39.924Z,21.40
2018-03-25T11:40:08.755Z,23.20
2018-03-25T11:42:36.820Z,23.10
2018-03-25T11:45:04.905Z,23.30
2018-03-25T11:47:32.998Z,23.30
2018-03-25T11:50:01.789Z,22.50
2018-03-25T11:52:29.863Z,22.20
2018-03-25T11:54:57.942Z,21.90
2018-03-25T11:57:26.771Z,23.10
2018-03-25T11:59:55.595Z,24.00
2018-03-25T12:02:23.668Z,24.00
2018-03-25T12:04:51.732Z,23.20
2018-03-25T12:07:19.797Z,22.40
2018-03-25T12:09:47.852Z,22.20
2018-03-25T12:12:15.916Z,22.20
2018-03-25T12:14:43.998Z,22.70
2018-03-25T13:39:09.796Z,21.90
2018-03-25T13:41:37.903Z,28.20
2018-03-25T13:44:05.944Z,27.80
2018-03-25T13:46:33.997Z,27.30
2018-03-25T13:49:02.062Z,26.40
2018-03-25T13:51:30.134Z,26.90
2018-03-25T13:53:59.005Z,28.10
2018-03-25T13:56:27.023Z,28.10
2018-03-25T13:58:55.077Z,27.40
2018-03-25T14:01:23.139Z,27.40
2018-03-25T14:03:51.196Z,27.10
2018-03-25T14:06:19.270Z,26.50
2018-03-25T14:08:47.359Z,26.70
2018-03-25T14:11:15.419Z,26.40
2018-03-25T14:13:43.506Z,27.80
2018-03-25T14:16:11.573Z,26.80
2018-03-25T14:18:40.451Z,27.20
2018-03-25T14:21:08.499Z,27.10
2018-03-25T14:23:36.561Z,27.00
2018-03-25T14:26:04.645Z,27.90
2018-03-25T14:28:32.717Z,29.90
2018-03-25T14:31:01.540Z,31.60
2018-03-25T14:33:30.031Z,31.60
2018-03-25T14:35:58.100Z,33.60
2018-03-25T14:38:26.202Z,33.50
2018-03-25T14:40:54.268Z,33.30
2018-03-25T14:43:22.334Z,32.40
2018-03-25T14:45:51.174Z,31.50
2018-03-25T14:48:19.238Z,31.40
2018-03-25T14:50:47.320Z,32.70
2018-03-25T14:53:16.156Z,32.50
2018-03-25T14:55:44.237Z,32.50
2018-03-25T14:58:12.609Z,32.40
2018-03-25T15:00:40.714Z,33.40
2018-03-25T15:03:08.785Z,34.10
2018-03-25T15:05:36.852Z,34.20
2018-03-25T15:08:04.916Z,34.00
2018-03-25T15:10:33.833Z,33.20
2018-03-25T15:13:01.870Z,33.20
2018-03-25T15:15:30.007Z,33.80
2018-03-25T15:17:58.084Z,32.90
2018-03-25T15:20:26.150Z,32.70
2018-03-25T15:22:55.000Z,33.80
2018-03-25T15:25:23.071Z,33.70
2018-03-25T15:27:51.140Z,33.80
2018-03-25T15:30:19.220Z,34.60
2018-03-25T15:32:47.309Z,34.50
2018-03-25T15:35:15.376Z,34.80
2018-03-25T15:37:44.225Z,34.30
2018-03-25T15:40:12.301Z,34.30
2018-03-25T15:42:40.378Z,34.00
2018-03-25T15:45:08.448Z,34.60
2018-03-25T15:47:36.534Z,35.90
2018-03-25T15:50:04.619Z,35.30
2018-03-25T15:52:32.693Z,35.10
2018-03-25T15:55:00.840Z,35.40
2018-03-25T15:57:28.914Z,35.40
2018-03-25T15:59:56.985Z,35.80
2018-03-25T16:02:25.054Z,35.70
2018-03-25T16:04:55.946Z,35.90
2018-03-25T16:07:24.550Z,36.30
2018-03-25T16:09:53.260Z,36.70
2018-03-25T16:12:21.516Z,37.90
2018-03-25T16:14:49.797Z,39.40
2018-03-25T16:17:18.243Z,40.00
2018-03-25T16:19:47.095Z,40.40
2018-03-25T16:22:15.452Z,40.40
2018-03-25T16:24:43.637Z,40.70
2018-03-25T16:27:13.290Z,40.20
2018-03-25T16:29:43.916Z,40.20
2018-03-25T16:32:13.362Z,40.80
2018-03-25T16:34:41.497Z,41.20
2018-03-25T16:37:09.783Z,41.40
2018-03-25T16:39:37.861Z,42.40
2018-03-25T16:42:05.948Z,43.10
2018-03-25T16:44:34.081Z,43.60
2018-03-25T16:47:02.158Z,43.80
2018-03-25T16:49:30.216Z,44.10
2018-03-25T16:51:58.297Z,45.00
2018-03-25T16:54:26.397Z,44.50
2018-03-25T16:56:54.475Z,45.20
2018-03-25T16:59:22.533Z,45.90
2018-03-25T17:01:50.613Z,46.40
2018-03-25T17:04:18.681Z,46.50
2018-03-25T17:06:47.516Z,46.20
2018-03-25T17:09:15.605Z,46.80
2018-03-25T17:11:43.669Z,45.90
2018-03-25T17:14:11.749Z,46.10
2018-03-25T17:16:39.827Z,46.20
2018-03-25T17:19:07.900Z,47.00
2018-03-25T17:21:36.735Z,47.10
2018-03-25T17:24:04.820Z,47.10
2018-03-25T17:26:32.881Z,47.80
2018-03-25T17:29:01.733Z,48.30
2018-03-25T17:31:29.792Z,48.20
2018-03-25T17:33:57.868Z,48.30
2018-03-25T17:36:25.940Z,48.40
2018-03-25T17:38:54.030Z,49.00
2018-03-25T17:41:22.120Z,48.50
2018-03-25T17:43:50.199Z,49.10
2018-03-25T17:46:18.278Z,48.90
2018-03-25T17:48:46.361Z,49.60
2018-03-25T17:51:14.427Z,50.00
2018-03-25T17:53:42.495Z,49.80
2018-03-25T17:56:10.557Z,50.10
2018-03-25T17:58:38.658Z,50.20
2018-03-25T18:01:06.711Z,50.80
2018-03-25T18:03:34.781Z,51.60
2018-03-25T18:06:02.922Z,51.90
2018-03-25T18:08:31.757Z,53.50
2018-03-25T18:10:59.832Z,53.50
2018-03-25T18:13:27.961Z,54.70
2018-03-25T18:15:56.064Z,54.00
2018-03-25T18:18:24.255Z,54.20
2018-03-25T18:20:56.289Z,54.20
2018-03-25T18:23:20.384Z,54.80
2018-03-25T18:25:48.456Z,56.00
2018-03-25T18:28:16.555Z,56.70
2018-03-25T18:30:44.662Z,56.40
2018-03-25T18:33:12.822Z,56.70
2018-03-25T18:35:40.897Z,57.80
2018-03-25T18:38:08.961Z,57.40
2018-03-25T18:40:37.083Z,57.60
2018-03-25T18:43:05.160Z,58.00
2018-03-25T18:45:33.234Z,58.50
2018-03-25T18:48:01.306Z,58.90
2018-03-25T18:50:29.376Z,59.20
2018-03-25T18:52:57.469Z,59.00
2018-03-25T18:55:25.533Z,58.80
2018-03-25T18:57:54.392Z,59.20
2018-03-25T19:00:22.433Z,59.20
2018-03-25T19:02:50.529Z,59.70
2018-03-25T19:05:18.895Z,60.80
2018-03-25T19:07:48.366Z,62.40
2018-03-25T19:10:17.400Z,63.60
2018-03-25T19:12:46.325Z,63.50
2018-03-25T19:15:14.413Z,63.40
2018-03-25T19:17:42.453Z,63.30
2018-03-25T19:20:10.530Z,63.70
2018-03-25T19:22:38.603Z,64.60
2018-03-25T19:25:06.680Z,64.20
2018-03-25T19:27:34.752Z,64.60
2018-03-25T19:30:02.830Z,64.40
2018-03-25T19:32:30.910Z,64.30
2018-03-25T19:34:58.987Z,65.30
2018-03-25T19:37:27.058Z,64.80
2018-03-25T19:39:55.104Z,65.80
2018-03-25T19:42:23.177Z,66.40
2018-03-25T19:44:51.258Z,67.00
2018-03-25T19:47:19.322Z,67.20
2018-03-25T19:49:47.404Z,67.30
2018-03-25T19:52:15.494Z,67.90
2018-03-25T19:54:43.579Z,68.30
2018-03-25T19:57:12.394Z,68.10
2018-03-25T19:59:40.496Z,68.10
2018-03-25T20:02:08.564Z,68.00
2018-03-25T20:04:36.647Z,67.70
2018-03-25T20:07:04.705Z,68.50
2018-03-25T20:09:33.099Z,69.00
2018-03-25T20:12:01.152Z,69.20
2018-03-25T20:14:29.283Z,68.60
2018-03-25T20:16:58.054Z,68.90
2018-03-25T20:19:26.190Z,68.80
2018-03-25T20:21:54.245Z,68.20
2018-03-25T20:24:23.354Z,69.50
2018-03-25T20:26:51.426Z,69.50
2018-03-25T20:29:19.505Z,69.70
2018-03-25T20:31:47.575Z,69.20
2018-03-25T20:34:15.668Z,69.20
2018-03-25T20:36:44.651Z,70.10
2018-03-25T20:39:13.483Z,71.00
2018-03-25T20:41:41.593Z,71.00
2018-03-25T20:44:09.655Z,70.80
2018-03-25T20:46:37.758Z,70.90
2018-03-25T20:49:05.864Z,71.00
2018-03-25T20:51:33.930Z,71.10
2018-03-25T20:54:02.349Z,71.30
2018-03-25T20:56:30.380Z,71.30
2018-03-25T20:58:58.495Z,71.30
2018-03-25T21:01:26.541Z,71.80
2018-03-25T21:03:54.645Z,72.00
2018-03-25T21:06:22.742Z,72.30
2018-03-25T21:08:50.823Z,72.40
2018-03-25T21:11:19.606Z,71.80
2018-03-25T21:13:47.666Z,71.10
2018-03-25T21:16:15.767Z,71.20
2018-03-25T21:18:43.822Z,71.90
2018-03-25T21:21:12.657Z,73.10
2018-03-25T21:23:40.725Z,73.10
2018-03-25T21:26:08.797Z,73.30
2018-03-25T21:28:36.900Z,72.90
2018-03-25T21:31:04.964Z,72.50
2018-03-25T21:33:33.603Z,72.60
2018-03-25T21:36:01.685Z,72.60
2018-03-25T21:38:29.734Z,73.30
2018-03-25T21:40:57.800Z,73.60
2018-03-25T21:43:25.852Z,74.40
2018-03-25T21:45:53.940Z,74.50
2018-03-25T21:48:21.990Z,74.90
2018-03-25T21:50:50.065Z,75.40
2018-03-25T21:53:18.169Z,75.30
2018-03-25T21:55:47.135Z,75.70
2018-03-25T21:58:15.993Z,75.40
2018-03-25T22:00:44.135Z,75.50
2018-03-25T22:03:12.137Z,75.20
2018-03-25T22:05:40.226Z,74.60
2018-03-25T22:08:08.262Z,75.00
2018-03-25T22:10:36.382Z,74.70
2018-03-25T22:13:04.441Z,74.90
2018-03-25T22:15:32.520Z,75.30
2018-03-25T22:18:00.568Z,74.50
2018-03-25T22:20:29.638Z,74.70
2018-03-25T22:22:57.697Z,75.10
2018-03-25T22:25:25.774Z,75.50
2018-03-25T22:27:53.829Z,75.40
2018-03-25T22:30:23.225Z,75.10
2018-03-25T22:32:51.317Z,75.10
2018-03-25T22:35:19.465Z,75.50
2018-03-25T22:37:48.321Z,75.60
2018-03-25T22:40:17.155Z,76.00
2018-03-25T22:42:46.027Z,76.00
2018-03-25T22:45:14.082Z,76.50
2018-03-25T22:47:42.154Z,77.40
2018-03-25T22:50:10.241Z,76.80
2018-03-25T22:52:38.311Z,76.50
2018-03-25T22:55:06.380Z,76.00
2018-03-25T22:57:34.457Z,76.30
2018-03-25T23:00:02.643Z,76.00
2018-03-25T23:02:30.881Z,75.20
2018-03-25T23:04:58.933Z,75.10
2018-03-25T23:07:27.940Z,75.30
2018-03-25T23:09:57.016Z,75.10
2018-03-25T23:12:25.094Z,75.50
2018-03-25T23:14:53.202Z,76.10
2018-03-25T23:17:21.366Z,76.70
2018-03-25T23:19:49.407Z,77.10
2018-03-25T23:22:17.538Z,77.40
2018-03-25T23:24:45.585Z,77.20
2018-03-25T23:27:13.662Z,77.30
2018-03-25T23:29:41.745Z,77.10
2018-03-25T23:32:09.808Z,77.60
2018-03-25T23:34:37.872Z,78.00
2018-03-25T23:37:05.953Z,78.00
2018-03-25T23:39:35.184Z,78.40
2018-03-25T23:42:03.272Z,78.00
2018-03-25T23:44:31.421Z,77.80
2018-03-25T23:46:59.654Z,78.30
2018-03-25T23:49:27.723Z,78.70
2018-03-25T23:51:55.814Z,78.40
2018-03-25T23:54:23.871Z,78.30
2018-03-25T23:56:51.934Z,78.70
2018-03-25T23:59:19.984Z,78.90
